createdAt,value
2022-08-17T00:01:16.731Z,7.18
2022-08-17T00:06:39.569Z,4.18
2022-08-17T00:12:35.081Z,3.90
2022-08-17T00:17:46.251Z,5.03
2022-08-17T00:23:13.082Z,5.03
2022-08-17T00:28:35.209Z,7.20
2022-08-17T00:33:58.652Z,4.57
2022-08-17T00:39:20.460Z,5.57
2022-08-17T00:44:42.343Z,4.07
2022-08-17T00:50:07.278Z,3.95
2022-08-17T00:55:29.020Z,3.75
2022-08-17T01:00:51.505Z,3.90
2022-08-17T01:06:14.604Z,4.25
2022-08-17T01:11:37.338Z,5.18
2022-08-17T01:17:00.461Z,4.43
2022-08-17T01:22:26.074Z,3.90
2022-08-17T01:27:48.903Z,5.78
2022-08-17T01:33:11.668Z,4.32
2022-08-17T01:38:35.857Z,3.88
2022-08-17T01:44:01.577Z,3.70
2022-08-17T01:49:23.493Z,4.28
2022-08-17T01:54:47.591Z,4.43
2022-08-17T02:00:10.899Z,3.65
2022-08-17T02:05:33.024Z,5.13
2022-08-17T02:10:55.203Z,3.88
2022-08-17T02:16:17.482Z,4.30
2022-08-17T02:21:40.580Z,6.32
2022-08-17T02:27:02.294Z,4.15
2022-08-17T02:32:27.916Z,5.55
2022-08-17T02:37:51.936Z,4.05
2022-08-17T02:43:17.765Z,3.85
2022-08-17T02:48:40.148Z,3.90
2022-08-17T02:54:38.963Z,5.20
2022-08-17T02:59:48.839Z,9.90
2022-08-17T03:05:13.296Z,5.60
2022-08-17T03:10:35.048Z,4.60
2022-08-17T03:15:56.909Z,4.88
2022-08-17T03:21:18.609Z,4.50
2022-08-17T03:26:40.330Z,4.95
2022-08-17T03:32:11.866Z,5.35
2022-08-17T03:37:33.766Z,4.40
2022-08-17T03:42:55.488Z,4.38
2022-08-17T03:48:35.666Z,5.18
2022-08-17T03:54:17.744Z,5.30
2022-08-17T03:59:41.013Z,5.10
2022-08-17T04:05:02.860Z,28.45
2022-08-17T04:10:26.487Z,20.90
2022-08-17T04:15:49.357Z,20.52
2022-08-17T04:21:11.115Z,18.10
2022-08-17T04:26:52.697Z,15.90
2022-08-17T04:32:14.492Z,15.88
2022-08-17T04:37:36.187Z,22.25
2022-08-17T04:43:03.110Z,13.45
2022-08-17T04:48:36.295Z,18.85
2022-08-17T04:54:09.440Z,22.38
2022-08-17T04:59:31.143Z,16.30
2022-08-17T05:04:52.852Z,23.10
2022-08-17T05:10:17.436Z,20.67
2022-08-17T05:15:44.970Z,22.75
2022-08-17T05:21:09.300Z,30.38
2022-08-17T05:26:30.984Z,29.08
2022-08-17T05:31:52.651Z,23.40
2022-08-17T05:37:14.461Z,24.52
2022-08-17T05:42:36.428Z,22.05
2022-08-17T05:47:58.152Z,22.10
2022-08-17T05:53:40.035Z,22.88
2022-08-17T05:59:48.328Z,22.48
2022-08-17T06:05:18.118Z,24.92
2022-08-17T06:11:04.339Z,28.35
2022-08-17T06:16:34.035Z,34.20
2022-08-17T06:21:56.718Z,39.58
2022-08-17T06:27:36.544Z,36.50
2022-08-17T06:33:06.230Z,39.75
2022-08-17T06:38:58.049Z,40.25
2022-08-17T06:44:50.613Z,35.97
2022-08-17T06:50:29.146Z,42.00
2022-08-17T06:56:00.052Z,38.42
2022-08-17T07:01:27.053Z,37.45
2022-08-17T07:06:57.337Z,41.95
2022-08-17T07:12:24.525Z,47.10
2022-08-17T07:17:50.053Z,44.70
2022-08-17T07:23:38.797Z,45.30
2022-08-17T07:29:02.505Z,47.50
2022-08-17T07:34:24.187Z,46.63
2022-08-17T07:40:04.463Z,46.03
2022-08-17T07:45:53.224Z,74.43
2022-08-17T07:51:19.145Z,71.00
2022-08-17T07:56:53.972Z,53.17
2022-08-17T08:02:31.722Z,43.00
2022-08-17T08:08:18.625Z,36.80
2022-08-17T08:13:45.289Z,44.13
2022-08-17T08:19:08.460Z,35.60
2022-08-17T08:25:02.637Z,41.55
2022-08-17T08:30:24.318Z,34.45
2022-08-17T08:35:55.160Z,36.47
2022-08-17T08:41:43.287Z,39.33
2022-08-17T08:47:05.264Z,45.67
2022-08-17T08:52:48.308Z,45.90
2022-08-17T08:58:31.854Z,45.00
2022-08-17T09:04:24.607Z,38.38
2022-08-17T09:10:08.497Z,35.95
2022-08-17T09:15:51.138Z,31.90
2022-08-17T09:21:33.651Z,33.65
2022-08-17T09:27:11.935Z,27.58
2022-08-17T09:32:44.403Z,25.65
2022-08-17T09:38:21.405Z,22.92
2022-08-17T09:44:27.917Z,24.60
2022-08-17T09:50:09.580Z,26.17
2022-08-17T09:55:44.964Z,18.70
2022-08-17T10:01:22.683Z,19.60
2022-08-17T10:07:12.936Z,19.92
2022-08-17T10:13:03.408Z,25.05
2022-08-17T10:18:59.863Z,15.93
2022-08-17T10:25:20.975Z,16.07
2022-08-17T10:30:31.673Z,13.93
2022-08-17T10:36:12.034Z,24.35
2022-08-17T10:41:44.922Z,20.60
2022-08-17T10:47:14.557Z,19.45
2022-08-17T10:52:42.544Z,22.02
2022-08-17T10:58:24.640Z,22.00
2022-08-17T11:03:53.655Z,20.10
2022-08-17T11:09:30.495Z,20.58
2022-08-17T11:15:16.232Z,21.27
2022-08-17T11:20:46.912Z,23.60
2022-08-17T11:26:30.714Z,22.27
2022-08-17T11:32:34.081Z,20.52
2022-08-17T11:38:16.286Z,22.33
2022-08-17T11:44:04.047Z,17.08
2022-08-17T11:50:16.701Z,14.88
2022-08-17T11:55:43.016Z,17.67
2022-08-17T12:01:26.951Z,17.17
2022-08-17T12:06:52.361Z,13.93
2022-08-17T12:12:22.904Z,13.52
2022-08-17T12:17:54.613Z,15.55
2022-08-17T12:23:20.894Z,15.07
2022-08-17T12:28:47.506Z,22.65
2022-08-17T12:34:18.636Z,21.17
2022-08-17T12:39:52.581Z,24.42
2022-08-17T12:45:36.905Z,18.20
2022-08-17T12:51:01.551Z,30.20
2022-08-17T12:56:23.425Z,30.13
2022-08-17T13:01:46.308Z,22.33
2022-08-17T13:07:08.095Z,19.25
2022-08-17T13:12:36.006Z,20.60
2022-08-17T13:18:06.408Z,22.20
2022-08-17T13:23:32.434Z,18.52
2022-08-17T13:28:54.666Z,20.48
2022-08-17T13:34:18.160Z,24.70
2022-08-17T13:39:44.723Z,23.52
2022-08-17T13:45:35.601Z,17.27
2022-08-17T13:50:58.678Z,23.02
2022-08-17T13:56:37.892Z,15.07
2022-08-17T14:02:01.187Z,26.50
2022-08-17T14:07:30.538Z,22.27
2022-08-17T14:12:52.966Z,15.55
2022-08-17T14:18:14.729Z,12.48
2022-08-17T14:23:37.281Z,14.88
2022-08-17T14:28:58.938Z,13.77
2022-08-17T14:34:24.182Z,15.52
2022-08-17T14:39:45.965Z,12.93
2022-08-17T14:45:32.101Z,15.73
2022-08-17T14:50:52.344Z,18.48
2022-08-17T14:56:14.110Z,15.73
2022-08-17T15:01:37.017Z,11.80
2022-08-17T15:06:59.033Z,14.52
2022-08-17T15:12:27.493Z,13.60
2022-08-17T15:17:53.922Z,10.65
2022-08-17T15:23:18.860Z,14.48
2022-08-17T15:28:40.584Z,12.70
2022-08-17T15:34:05.383Z,11.50
2022-08-17T15:39:29.781Z,10.65
2022-08-17T15:44:53.171Z,16.70
2022-08-17T15:50:14.892Z,12.38
2022-08-17T15:55:38.471Z,14.55
2022-08-17T16:01:16.671Z,8.60
2022-08-17T16:06:40.841Z,13.30
2022-08-17T16:12:20.885Z,29.08
2022-08-17T16:17:42.763Z,22.80
2022-08-17T16:23:04.838Z,17.85
2022-08-17T16:28:36.340Z,13.88
2022-08-17T16:34:17.354Z,15.07
2022-08-17T16:39:40.668Z,18.40
2022-08-17T16:45:10.738Z,19.63
2022-08-17T16:50:33.971Z,15.85
2022-08-17T16:55:57.169Z,11.85
2022-08-17T17:01:20.384Z,12.25
2022-08-17T17:07:14.567Z,16.50
2022-08-17T17:13:03.236Z,10.70
2022-08-17T17:18:43.640Z,12.43
2022-08-17T17:24:13.783Z,13.10
2022-08-17T17:29:56.808Z,12.93
2022-08-17T17:35:53.997Z,8.18
2022-08-17T17:41:27.397Z,7.25
2022-08-17T17:46:57.059Z,12.40
2022-08-17T17:52:45.439Z,11.05
2022-08-17T17:58:21.260Z,8.27
2022-08-17T18:04:01.453Z,7.60
2022-08-17T18:10:01.180Z,7.95
2022-08-17T18:15:29.754Z,6.57
2022-08-17T18:20:56.230Z,8.40
2022-08-17T18:26:33.076Z,8.55
2022-08-17T18:32:23.055Z,10.68
2022-08-17T18:37:48.579Z,8.60
2022-08-17T18:43:14.377Z,11.18
2022-08-17T18:48:53.657Z,9.48
2022-08-17T18:54:24.898Z,9.10
2022-08-17T18:59:48.431Z,8.88
2022-08-17T19:05:39.713Z,10.50
2022-08-17T19:11:05.690Z,8.40
2022-08-17T19:16:35.120Z,9.88
2022-08-17T19:22:07.032Z,13.88
2022-08-17T19:27:52.270Z,15.40
2022-08-17T19:33:19.574Z,16.67
2022-08-17T19:39:18.537Z,11.40
2022-08-17T19:44:49.088Z,16.40
2022-08-17T19:50:15.946Z,13.63
2022-08-17T19:55:55.322Z,24.63
2022-08-17T20:01:29.909Z,23.92
2022-08-17T20:07:06.885Z,44.90
2022-08-17T20:12:36.023Z,18.02
2022-08-17T20:18:03.058Z,12.70
2022-08-17T20:23:36.474Z,43.28
2022-08-17T20:29:06.346Z,21.73
2022-08-17T20:34:30.945Z,17.08
2022-08-17T20:39:59.357Z,18.98
2022-08-17T20:45:20.960Z,17.63
2022-08-17T20:50:52.280Z,17.35
2022-08-17T20:56:45.151Z,14.90
2022-08-17T21:02:17.600Z,16.55
2022-08-17T21:07:54.346Z,20.05
2022-08-17T21:13:16.166Z,29.17
2022-08-17T21:19:16.984Z,19.05
2022-08-17T21:25:01.723Z,22.30
2022-08-17T21:31:09.105Z,19.73
2022-08-17T21:36:31.539Z,17.95
2022-08-17T21:41:55.900Z,18.13
2022-08-17T21:47:24.743Z,12.73
2022-08-17T21:52:47.880Z,16.08
2022-08-17T21:58:29.012Z,17.60
2022-08-17T22:04:19.427Z,12.05
2022-08-17T22:09:47.932Z,12.85
2022-08-17T22:15:16.030Z,11.73
2022-08-17T22:20:38.583Z,14.68
2022-08-17T22:26:06.227Z,16.25
2022-08-17T22:31:55.206Z,9.55
2022-08-17T22:37:28.723Z,10.83
2022-08-17T22:42:50.460Z,8.32
2022-08-17T22:48:16.756Z,10.50
2022-08-17T22:54:05.280Z,12.13
2022-08-17T22:59:41.976Z,11.05
2022-08-17T23:05:18.965Z,9.68
2022-08-17T23:10:42.815Z,8.90
2022-08-17T23:16:04.766Z,11.05
2022-08-17T23:21:29.852Z,9.82
2022-08-17T23:26:52.456Z,7.28
2022-08-17T23:32:16.188Z,8.63
2022-08-17T23:37:38.025Z,8.27
2022-08-17T23:42:59.750Z,8.85
2022-08-17T23:48:35.044Z,7.75
2022-08-17T23:54:08.200Z,9.25
2022-08-17T23:59:30.572Z,8.65
